Aérodrome :
LOGIN :

S'inscrire | Disclaimer

   EN    FR    IT 

 










Légende :    VFR   VFR Marginal   IFR   IFR Intensif   IFR Très Intensif
Visi : 
Plafond : 
>= 8 km
>= 3000ft
5 à 8 km
1000 à 3000 ft
1500m à 5 km
500 à 1000 ft
800 à 1500m
200 à 500 ft
< 800m
< 200 ft
Symboles :   Orages  Brouillard  Fortes neiges  Fortes précipitations  Vent > 20 kt
SIGMETs :   Divers  Orages  Givrage  Turbulence  Onde Orograph.  Cendres Volcan.






- Altitude de l'aérodrome : 529 ft
- Code IATA : CHR


LFLX - Chateauroux

DERNIER METAR :
  • 271430Z AUTO 29025G35KT 9999 SCT032 BKN039 OVC048 11/05 Q1005 TEMPO 4000 SHRA BKN020TCU

METARs EXPIRÉS :
  • 271400Z AUTO 29027KT 9999 SCT034 BKN045 12/06 Q1004 TEMPO 28020G35KT 4000 SHRA BKN020TCU
  • 271330Z AUTO 28027G38KT 9999 FEW031 BKN038 BKN054 14/08 Q1002 TEMPO 4000 SHRA BKN020TCU
  • 271300Z AUTO 26022G34KT 9999 SCT028 BKN035 BKN043 14/09 Q1001 TEMPO 4000 SHRA BKN020TCU
  • 271230Z AUTO 26024KT 9999 FEW020 BKN026 BKN031 13/10 Q1000 TEMPO 28020G35KT 4000 SHRA BKN020TCU
  • 271200Z AUTO 25024KT 9999 OVC016 13/11 Q1000 TEMPO 28020G35KT 4000 SHRA BKN020TCU

TAF TAF LFLX
Valide du 27 à 12h jusqu'au 28 à 18h UTC


271100Z 2712/2818 26015G25KT 9999 BKN030
TEMPO 2712/2717 28020G35KT 4000 SHRA BKN020TCU
PROB30
TEMPO 2712/2713 28025G45KT
BECMG 2717/2719 28010KT CAVOK
BECMG 2722/2801 VRB02KT
TEMPO 2801/2806 2500 MIFG
BECMG 2806/2809 19010KT BKN030
TEMPO 2810/2818 -RA BKN012
PROB30
TEMPO 2813/2817 2500 -DZ OVC002



MET'MAP, la Météo Aéronautique d'un coup d'oeil ! - Copyright ORBIFLY Décembre 2007 - Disclaimer

ORBIFLY MET'MAP TEAM :

Programmation & Développement : Alexandra Zaïnal
Sur une idée originale de : Baudouin d'Aumeries
Assistance à la programmation : Marc-Olivier Méhu
Soutien technique & logistique : Manuel Goepfert

Contact : metmap@orbifly.com




SOURCES & CREDITS :

   NOAA